createdAt,value
2023-05-06T00:00:24.757Z,3.00
2023-05-06T00:02:52.212Z,3.20
2023-05-06T00:05:19.372Z,2.90
2023-05-06T00:07:46.238Z,2.90
2023-05-06T00:10:13.119Z,3.20
2023-05-06T00:12:41.460Z,4.20
2023-05-06T00:15:08.905Z,4.00
2023-05-06T00:17:36.015Z,3.70
2023-05-06T00:20:03.450Z,4.00
2023-05-06T00:22:30.927Z,3.90
2023-05-06T00:25:00.541Z,3.60
2023-05-06T00:27:27.504Z,3.50
2023-05-06T00:29:54.364Z,3.60
2023-05-06T00:32:21.197Z,3.30
2023-05-06T00:34:48.085Z,3.10
2023-05-06T00:37:15.006Z,3.10
2023-05-06T00:39:41.896Z,3.00
2023-05-06T00:42:08.688Z,3.20
2023-05-06T00:44:36.543Z,3.10
2023-05-06T00:47:03.475Z,3.40
2023-05-06T00:49:31.061Z,3.40
2023-05-06T00:51:58.447Z,2.90
2023-05-06T00:54:26.333Z,3.10
2023-05-06T00:56:53.630Z,2.90
2023-05-06T00:59:25.549Z,3.20
2023-05-06T01:01:53.409Z,2.70
2023-05-06T01:04:22.096Z,3.10
2023-05-06T01:07:07.586Z,2.60
2023-05-06T01:10:00.590Z,2.60
2023-05-06T01:12:32.421Z,2.80
2023-05-06T01:15:05.901Z,2.50
2023-05-06T01:17:34.127Z,2.70
2023-05-06T01:20:01.013Z,2.90
2023-05-06T01:22:33.638Z,3.10
2023-05-06T01:25:01.134Z,2.60
2023-05-06T01:27:28.037Z,2.80
2023-05-06T01:29:54.831Z,2.40
2023-05-06T01:32:36.205Z,2.80
2023-05-06T01:35:55.015Z,2.80
2023-05-06T01:38:45.633Z,2.10
2023-05-06T01:41:15.505Z,2.20
2023-05-06T01:43:44.043Z,2.40
2023-05-06T01:46:13.083Z,2.60
2023-05-06T01:48:40.127Z,2.70
2023-05-06T01:51:06.965Z,2.90
2023-05-06T01:53:34.413Z,2.60
2023-05-06T01:56:01.495Z,2.70
2023-05-06T01:58:28.508Z,3.00
2023-05-06T02:00:55.300Z,3.00
2023-05-06T02:03:22.737Z,2.70
2023-05-06T02:05:49.817Z,2.50
2023-05-06T02:08:16.914Z,2.70
2023-05-06T02:10:45.450Z,2.80
2023-05-06T02:13:12.644Z,3.00
2023-05-06T02:15:39.550Z,2.60
2023-05-06T02:18:08.379Z,2.80
2023-05-06T02:20:35.278Z,2.50
2023-05-06T02:23:02.604Z,2.70
2023-05-06T02:25:31.031Z,2.70
2023-05-06T02:27:57.819Z,2.50
2023-05-06T02:30:24.685Z,2.70
2023-05-06T02:32:52.058Z,2.50
2023-05-06T02:35:19.018Z,2.80
2023-05-06T02:37:45.891Z,2.70
2023-05-06T02:40:12.932Z,2.80
2023-05-06T02:42:40.219Z,2.40
2023-05-06T02:45:08.021Z,2.60
2023-05-06T02:47:35.621Z,3.00
2023-05-06T02:50:04.216Z,3.30
2023-05-06T02:52:32.859Z,9.90
2023-05-06T02:55:00.615Z,9.10
2023-05-06T02:57:27.529Z,7.70
2023-05-06T02:59:54.343Z,4.70
2023-05-06T03:02:21.314Z,3.60
2023-05-06T03:04:48.268Z,2.90
2023-05-06T03:07:15.591Z,2.80
2023-05-06T03:09:44.275Z,2.90
2023-05-06T03:12:11.364Z,2.40
2023-05-06T03:14:38.607Z,2.80
2023-05-06T03:17:05.442Z,2.90
2023-05-06T03:19:35.906Z,2.40
2023-05-06T03:22:03.413Z,2.70
2023-05-06T03:24:32.015Z,2.60
2023-05-06T03:26:59.069Z,2.20
2023-05-06T03:29:26.418Z,2.90
2023-05-06T03:31:55.706Z,2.80
2023-05-06T03:34:22.557Z,2.90
2023-05-06T03:36:49.577Z,2.40
2023-05-06T03:39:16.815Z,2.60
2023-05-06T03:41:45.046Z,2.50
2023-05-06T03:44:12.528Z,2.70
2023-05-06T03:46:41.235Z,3.10
2023-05-06T03:49:08.225Z,2.50
2023-05-06T03:51:35.600Z,2.80
2023-05-06T03:54:03.289Z,2.90
2023-05-06T03:56:30.999Z,2.60
2023-05-06T03:58:58.480Z,2.60
2023-05-06T04:01:26.215Z,3.00
2023-05-06T04:03:54.123Z,2.80
2023-05-06T04:06:21.483Z,3.00
2023-05-06T04:08:48.424Z,2.90
2023-05-06T04:11:16.376Z,2.50
2023-05-06T04:13:43.365Z,3.00
2023-05-06T04:16:14.014Z,2.90
2023-05-06T04:18:44.080Z,3.20
2023-05-06T04:21:13.460Z,3.00
2023-05-06T04:23:47.633Z,2.80
2023-05-06T04:26:16.545Z,2.60
2023-05-06T04:28:44.228Z,3.00
2023-05-06T04:31:13.928Z,2.70
2023-05-06T04:33:44.520Z,3.40
2023-05-06T04:36:15.338Z,2.70
2023-05-06T04:38:54.376Z,2.70
2023-05-06T04:41:21.809Z,2.60
2023-05-06T04:43:48.842Z,3.10
2023-05-06T04:46:24.801Z,3.40
2023-05-06T04:48:52.170Z,2.80
2023-05-06T04:51:19.897Z,3.00
2023-05-06T04:53:46.797Z,3.00
2023-05-06T04:56:14.068Z,3.00
2023-05-06T04:58:40.889Z,2.90
2023-05-06T05:01:09.286Z,3.10
2023-05-06T05:03:36.265Z,2.90
2023-05-06T05:06:04.429Z,3.20
2023-05-06T05:08:31.662Z,3.30
2023-05-06T05:10:58.503Z,3.30
2023-05-06T05:13:26.876Z,3.10
2023-05-06T05:15:59.326Z,3.40
2023-05-06T05:18:28.919Z,3.90
2023-05-06T05:20:58.536Z,3.00
2023-05-06T05:23:30.876Z,3.10
2023-05-06T05:25:58.398Z,2.80
2023-05-06T05:28:25.408Z,2.70
2023-05-06T05:30:52.878Z,2.90
2023-05-06T05:33:20.280Z,2.40
2023-05-06T05:35:47.114Z,2.80
2023-05-06T05:38:15.642Z,2.80
2023-05-06T05:40:43.837Z,2.50
2023-05-06T05:43:10.882Z,2.40
2023-05-06T05:53:44.362Z,2.40
2023-05-06T05:56:11.950Z,2.80
2023-05-06T05:58:39.628Z,2.40
2023-05-06T06:01:06.601Z,2.20
2023-05-06T06:03:33.702Z,2.10
2023-05-06T06:06:00.657Z,2.70
2023-05-06T06:08:34.343Z,2.30
2023-05-06T06:11:03.860Z,2.90
2023-05-06T06:13:35.577Z,2.10
2023-05-06T06:16:02.746Z,2.20
2023-05-06T06:18:30.084Z,2.10
2023-05-06T06:21:02.373Z,2.10
2023-05-06T06:23:29.268Z,2.40
2023-05-06T06:26:01.826Z,1.90
2023-05-06T06:28:28.957Z,2.20
2023-05-06T06:30:55.814Z,2.40
2023-05-06T06:33:22.604Z,2.30
2023-05-06T06:35:59.801Z,2.40
2023-05-06T06:38:26.789Z,2.50
2023-05-06T06:40:53.691Z,3.10
2023-05-06T06:43:20.903Z,2.70
2023-05-06T06:45:47.881Z,2.10
2023-05-06T06:48:15.007Z,2.70
2023-05-06T06:50:42.087Z,2.60
2023-05-06T06:53:09.677Z,2.00
2023-05-06T06:55:36.899Z,2.40
2023-05-06T06:58:03.857Z,2.50
2023-05-06T07:00:31.500Z,1.70
2023-05-06T07:02:58.388Z,2.00
2023-05-06T07:05:26.652Z,1.70
2023-05-06T07:07:54.222Z,3.00
2023-05-06T07:10:21.722Z,1.80
2023-05-06T07:12:48.796Z,2.90
2023-05-06T07:15:15.690Z,2.00
2023-05-06T07:17:42.638Z,1.90
2023-05-06T07:20:10.302Z,1.90
2023-05-06T07:22:38.574Z,3.70
2023-05-06T07:25:06.424Z,1.70
2023-05-06T07:27:33.437Z,1.70
2023-05-06T07:30:00.384Z,2.40
2023-05-06T07:32:27.301Z,2.10
2023-05-06T07:34:54.248Z,2.00
2023-05-06T07:37:21.128Z,1.70
2023-05-06T07:39:48.249Z,1.50
2023-05-06T07:42:15.150Z,1.70
2023-05-06T07:44:41.914Z,2.20
2023-05-06T07:47:09.020Z,1.70
2023-05-06T07:49:36.343Z,2.00
2023-05-06T07:52:03.675Z,2.00
2023-05-06T07:54:31.077Z,2.10
2023-05-06T07:56:58.044Z,2.00
2023-05-06T07:59:24.883Z,1.60
2023-05-06T08:01:52.205Z,1.70
2023-05-06T08:04:19.511Z,1.40
2023-05-06T08:06:46.407Z,2.20
2023-05-06T08:09:22.098Z,1.90
2023-05-06T08:11:55.240Z,1.90
2023-05-06T08:14:21.948Z,2.70
2023-05-06T08:16:49.977Z,2.40
2023-05-06T08:19:17.327Z,2.10
2023-05-06T08:21:44.097Z,2.20
2023-05-06T08:24:13.267Z,2.40
2023-05-06T08:26:45.266Z,1.90
2023-05-06T08:29:13.018Z,2.20
2023-05-06T08:31:39.907Z,2.20
2023-05-06T08:34:06.884Z,2.10
2023-05-06T08:36:33.814Z,2.10
2023-05-06T08:39:00.713Z,2.30
2023-05-06T08:41:27.636Z,2.20
2023-05-06T08:43:55.003Z,1.70
2023-05-06T08:46:22.378Z,2.00
2023-05-06T08:48:54.371Z,2.00
2023-05-06T08:51:22.187Z,2.30
2023-05-06T08:53:51.087Z,2.60
2023-05-06T08:56:18.045Z,2.10
2023-05-06T08:58:48.095Z,2.30
2023-05-06T09:01:20.011Z,2.30
2023-05-06T09:03:47.480Z,2.40
2023-05-06T09:06:14.245Z,3.20
2023-05-06T09:08:41.128Z,2.10
2023-05-06T09:11:21.402Z,1.90
2023-05-06T09:13:53.836Z,3.40
2023-05-06T09:16:28.741Z,1.90
2023-05-06T09:18:56.100Z,2.00
2023-05-06T09:21:29.325Z,1.90
2023-05-06T09:23:57.544Z,1.90
2023-05-06T09:26:24.453Z,1.80
2023-05-06T09:28:51.338Z,1.70
2023-05-06T09:31:18.307Z,1.90
2023-05-06T09:33:45.142Z,1.90
2023-05-06T09:36:12.925Z,2.30
2023-05-06T09:38:40.478Z,2.40
2023-05-06T09:41:07.504Z,1.90
2023-05-06T09:43:35.846Z,1.70
2023-05-06T09:46:08.448Z,2.20
2023-05-06T09:48:35.412Z,2.00
2023-05-06T09:51:03.002Z,1.70
2023-05-06T09:53:30.964Z,1.60
2023-05-06T09:55:58.702Z,1.90
2023-05-06T09:58:25.438Z,1.80
2023-05-06T10:00:52.380Z,1.30
2023-05-06T10:03:19.934Z,1.40
2023-05-06T10:05:47.050Z,1.70
2023-05-06T10:08:17.924Z,2.00
2023-05-06T10:10:48.195Z,1.80
2023-05-06T10:13:15.854Z,1.70
2023-05-06T10:15:45.740Z,2.20
2023-05-06T10:18:15.114Z,2.00
2023-05-06T10:20:42.043Z,2.10
2023-05-06T10:23:21.061Z,2.00
2023-05-06T10:25:51.346Z,2.10
2023-05-06T10:28:21.048Z,2.30
2023-05-06T10:30:51.602Z,1.80
2023-05-06T10:33:19.722Z,2.00
2023-05-06T10:35:57.921Z,1.80
2023-05-06T10:38:35.402Z,2.20
2023-05-06T10:41:02.328Z,1.80
2023-05-06T10:43:32.823Z,2.20
2023-05-06T10:46:06.530Z,1.70
2023-05-06T10:48:37.183Z,1.70
2023-05-06T10:51:13.371Z,2.10
2023-05-06T10:53:59.699Z,1.80
2023-05-06T10:56:26.523Z,1.60
2023-05-06T10:58:54.464Z,1.90
2023-05-06T11:01:27.901Z,1.70
2023-05-06T11:04:14.032Z,2.00
2023-05-06T11:06:50.353Z,1.90
2023-05-06T11:09:26.294Z,2.00
2023-05-06T11:12:01.464Z,1.90
2023-05-06T11:14:35.032Z,1.70
2023-05-06T11:17:06.478Z,1.90
2023-05-06T11:19:34.749Z,1.90
2023-05-06T11:22:03.438Z,2.10
2023-05-06T11:24:42.293Z,2.10
2023-05-06T11:27:10.131Z,1.90
2023-05-06T11:29:37.076Z,1.60
2023-05-06T11:32:05.191Z,2.00
2023-05-06T11:34:32.470Z,1.80
2023-05-06T11:37:04.146Z,1.90
2023-05-06T11:39:38.773Z,3.70
2023-05-06T11:42:08.101Z,1.80
2023-05-06T11:44:38.537Z,1.90
2023-05-06T11:47:07.378Z,2.00
2023-05-06T11:49:39.749Z,2.10
2023-05-06T11:52:10.651Z,1.90
2023-05-06T11:54:41.553Z,1.70
2023-05-06T11:57:09.153Z,2.50
2023-05-06T11:59:37.401Z,1.90
2023-05-06T12:02:08.441Z,2.10
2023-05-06T12:04:42.783Z,1.90
2023-05-06T12:07:11.349Z,1.60
2023-05-06T12:09:40.305Z,2.00
2023-05-06T12:12:07.401Z,2.20
2023-05-06T12:14:35.816Z,2.20
2023-05-06T12:17:03.065Z,2.40
2023-05-06T12:19:30.209Z,2.00
2023-05-06T12:22:14.092Z,2.80
2023-05-06T12:24:40.958Z,2.40
2023-05-06T12:27:07.936Z,1.90
2023-05-06T12:29:35.010Z,2.30
2023-05-06T12:32:11.686Z,2.30
2023-05-06T12:34:39.909Z,1.90
2023-05-06T12:37:08.107Z,2.00
2023-05-06T12:39:36.017Z,2.30
2023-05-06T12:42:03.379Z,1.70
2023-05-06T12:44:37.906Z,2.10
2023-05-06T12:47:21.867Z,2.20
2023-05-06T12:50:00.665Z,1.90
2023-05-06T12:52:29.271Z,2.80
2023-05-06T12:54:56.278Z,2.10
2023-05-06T12:57:23.143Z,1.80
2023-05-06T12:59:50.151Z,1.90
2023-05-06T13:02:17.157Z,1.90
2023-05-06T13:04:46.133Z,1.80
2023-05-06T13:07:13.040Z,2.10
2023-05-06T13:09:40.001Z,2.20
2023-05-06T13:12:07.281Z,2.40
2023-05-06T13:14:53.128Z,2.40
2023-05-06T13:17:20.262Z,2.10
2023-05-06T13:19:47.643Z,2.20
2023-05-06T13:22:14.516Z,1.90
2023-05-06T13:24:41.601Z,2.00
2023-05-06T13:27:08.608Z,2.10
2023-05-06T13:29:35.806Z,2.10
2023-05-06T13:32:04.296Z,1.80
2023-05-06T13:34:32.261Z,1.80
2023-05-06T13:36:59.113Z,1.90
2023-05-06T13:39:25.921Z,2.00
2023-05-06T13:41:53.628Z,2.50
2023-05-06T13:44:26.176Z,2.00
2023-05-06T13:46:53.005Z,2.30
2023-05-06T13:49:19.950Z,2.30
2023-05-06T13:51:46.815Z,2.20
2023-05-06T13:54:14.301Z,2.00
2023-05-06T13:56:41.452Z,2.00
2023-05-06T13:59:09.560Z,2.20
2023-05-06T14:01:36.960Z,2.00
2023-05-06T14:04:04.046Z,1.80
2023-05-06T14:06:31.301Z,2.40
2023-05-06T14:08:58.085Z,2.20
2023-05-06T14:11:24.920Z,2.40
2023-05-06T14:13:52.109Z,2.40
2023-05-06T14:16:18.998Z,2.20
2023-05-06T14:18:46.049Z,1.70
2023-05-06T14:21:12.862Z,1.90
2023-05-06T14:23:39.839Z,2.90
2023-05-06T14:26:07.191Z,2.10
2023-05-06T14:28:34.138Z,1.90
2023-05-06T14:31:01.389Z,2.30
2023-05-06T14:33:28.281Z,2.00
2023-05-06T14:35:55.253Z,2.10
2023-05-06T14:38:22.077Z,2.10
2023-05-06T14:40:49.825Z,2.60
2023-05-06T14:43:16.727Z,2.50
2023-05-06T14:45:43.807Z,2.20
2023-05-06T14:48:10.807Z,2.30
2023-05-06T14:50:38.110Z,2.10
2023-05-06T14:53:05.006Z,2.40
2023-05-06T14:55:33.202Z,2.20
2023-05-06T14:58:05.553Z,2.40
2023-05-06T15:00:32.559Z,2.50
2023-05-06T15:02:59.654Z,1.90
2023-05-06T15:05:26.999Z,2.50
2023-05-06T15:07:54.747Z,2.30
2023-05-06T15:10:22.106Z,2.20
2023-05-06T15:12:50.900Z,2.40
2023-05-06T15:15:18.185Z,2.40
2023-05-06T15:17:45.138Z,2.20
2023-05-06T15:20:12.923Z,3.00
2023-05-06T15:22:40.155Z,2.70
2023-05-06T15:25:09.300Z,2.70
2023-05-06T15:27:37.896Z,2.20
2023-05-06T15:30:06.102Z,2.40
2023-05-06T15:32:33.692Z,2.60
2023-05-06T15:35:00.823Z,3.00
2023-05-06T15:37:27.789Z,2.70
2023-05-06T15:39:54.977Z,2.60
2023-05-06T15:42:22.369Z,2.50
2023-05-06T15:44:54.547Z,2.40
2023-05-06T15:47:21.719Z,2.90
2023-05-06T15:49:54.969Z,2.20
2023-05-06T15:52:22.508Z,2.30
2023-05-06T15:54:50.093Z,2.70
2023-05-06T15:57:17.470Z,3.00
2023-05-06T15:59:44.429Z,2.80
2023-05-06T16:04:41.795Z,3.20
2023-05-06T16:07:09.353Z,3.00
2023-05-06T16:09:36.624Z,3.40
2023-05-06T16:12:04.458Z,2.90
2023-05-06T16:14:32.602Z,3.80
2023-05-06T16:16:59.714Z,3.40
2023-05-06T16:19:26.822Z,3.90
2023-05-06T16:21:53.887Z,3.60
2023-05-06T16:24:25.952Z,5.20
2023-05-06T16:26:54.684Z,4.20
2023-05-06T16:29:21.606Z,4.20
2023-05-06T16:31:48.780Z,4.10
2023-05-06T16:34:15.992Z,3.90
2023-05-06T16:36:43.276Z,3.90
2023-05-06T16:39:10.715Z,4.50
2023-05-06T16:41:38.031Z,3.60
2023-05-06T16:44:05.147Z,3.90
2023-05-06T16:46:32.847Z,3.70
2023-05-06T16:49:00.777Z,3.80
2023-05-06T16:51:28.359Z,3.80
2023-05-06T16:53:55.818Z,3.50
2023-05-06T16:56:36.755Z,3.10
2023-05-06T16:59:11.187Z,3.40
2023-05-06T17:01:38.209Z,4.00
2023-05-06T17:04:05.072Z,3.40
2023-05-06T17:06:33.557Z,3.30
2023-05-06T17:09:00.929Z,3.20
2023-05-06T17:11:27.920Z,3.00
2023-05-06T17:13:54.777Z,3.20
2023-05-06T17:16:22.582Z,3.20
2023-05-06T17:18:49.461Z,2.90
2023-05-06T17:21:16.350Z,3.10
2023-05-06T17:23:43.689Z,3.00
2023-05-06T17:26:10.733Z,3.30
2023-05-06T17:28:37.785Z,3.80
2023-05-06T17:31:05.076Z,3.60
2023-05-06T17:33:32.188Z,3.70
2023-05-06T17:35:59.514Z,4.40
2023-05-06T17:38:26.404Z,4.50
2023-05-06T17:40:53.306Z,4.90
2023-05-06T17:43:20.739Z,5.20
2023-05-06T17:45:47.905Z,5.80
2023-05-06T17:48:14.671Z,6.60
2023-05-06T17:50:41.521Z,7.20
2023-05-06T17:53:13.637Z,7.10
2023-05-06T17:55:40.926Z,7.70
2023-05-06T17:58:07.675Z,9.00
2023-05-06T18:00:34.754Z,9.20
2023-05-06T18:03:01.655Z,8.70
2023-05-06T18:05:29.085Z,9.40
2023-05-06T18:07:55.989Z,10.20
2023-05-06T18:10:22.790Z,10.30
2023-05-06T18:12:49.912Z,10.70
2023-05-06T18:15:16.920Z,10.00
2023-05-06T18:17:45.288Z,10.30
2023-05-06T18:20:12.456Z,10.50
2023-05-06T18:22:42.416Z,11.10
2023-05-06T18:25:09.611Z,10.20
2023-05-06T18:27:36.772Z,8.10
2023-05-06T18:30:04.539Z,8.00
2023-05-06T18:32:33.793Z,7.80
2023-05-06T18:35:00.613Z,9.10
2023-05-06T18:37:32.679Z,9.70
2023-05-06T18:39:59.513Z,9.10
2023-05-06T18:42:27.259Z,6.50
2023-05-06T18:44:54.127Z,5.20
2023-05-06T18:47:21.138Z,4.70
2023-05-06T18:49:48.239Z,4.30
2023-05-06T18:52:17.249Z,3.80
2023-05-06T18:54:44.214Z,3.80
2023-05-06T18:57:11.578Z,3.90
2023-05-06T18:59:38.491Z,3.30
2023-05-06T19:02:05.904Z,3.30
2023-05-06T19:04:32.890Z,3.40
2023-05-06T19:07:00.801Z,3.00
2023-05-06T19:09:27.873Z,3.40
2023-05-06T19:11:55.245Z,3.50
2023-05-06T19:14:23.544Z,3.20
2023-05-06T19:16:51.961Z,3.70
2023-05-06T19:19:19.076Z,3.90
2023-05-06T19:21:46.006Z,3.30
2023-05-06T19:24:12.770Z,3.00
2023-05-06T19:26:40.009Z,3.60
2023-05-06T19:29:06.869Z,3.10
2023-05-06T19:31:34.422Z,3.00
2023-05-06T19:34:01.751Z,3.20
2023-05-06T19:36:28.980Z,3.20
2023-05-06T19:38:55.931Z,3.10
2023-05-06T19:41:22.722Z,3.30
2023-05-06T19:43:51.374Z,3.10
2023-05-06T19:46:18.245Z,3.30
2023-05-06T19:48:45.784Z,2.90
2023-05-06T19:51:12.702Z,3.30
2023-05-06T19:53:39.543Z,3.40
2023-05-06T19:56:11.071Z,3.10
2023-05-06T19:58:38.565Z,3.10
2023-05-06T20:01:05.487Z,3.40
2023-05-06T20:03:33.259Z,3.10
2023-05-06T20:06:00.626Z,3.20
2023-05-06T20:08:27.514Z,3.30
2023-05-06T20:10:54.662Z,2.90
2023-05-06T20:13:21.940Z,3.00
2023-05-06T20:15:49.873Z,3.40
2023-05-06T20:18:16.762Z,4.00
2023-05-06T20:20:44.006Z,3.00
2023-05-06T20:23:11.212Z,2.80
2023-05-06T20:25:38.064Z,3.30
2023-05-06T20:28:06.392Z,3.90
2023-05-06T20:30:34.347Z,3.30
2023-05-06T20:33:01.431Z,2.90
2023-05-06T20:35:37.630Z,3.30
2023-05-06T20:38:05.554Z,3.40
2023-05-06T20:40:35.050Z,2.90
2023-05-06T20:43:02.023Z,3.20
2023-05-06T20:45:30.550Z,3.20
2023-05-06T20:47:57.575Z,3.10
2023-05-06T20:50:24.538Z,2.40
2023-05-06T20:52:52.348Z,2.80
2023-05-06T20:55:22.482Z,3.00
2023-05-06T20:57:49.391Z,3.00
2023-05-06T21:00:16.326Z,2.90
2023-05-06T21:02:43.399Z,2.70
2023-05-06T21:05:10.887Z,2.90
2023-05-06T21:07:41.828Z,2.80
2023-05-06T21:10:17.089Z,2.60
2023-05-06T21:12:48.746Z,2.90
2023-05-06T21:15:15.804Z,3.00
2023-05-06T21:17:42.902Z,2.40
2023-05-06T21:20:10.960Z,2.50
2023-05-06T21:22:38.059Z,2.50
2023-05-06T21:25:05.985Z,2.50
2023-05-06T21:27:33.323Z,3.10
2023-05-06T21:30:00.192Z,2.60
2023-05-06T21:32:32.346Z,2.60
2023-05-06T21:35:01.348Z,2.80
2023-05-06T21:37:28.236Z,3.20
2023-05-06T21:40:00.282Z,2.80
2023-05-06T21:42:27.072Z,3.00
2023-05-06T21:44:53.833Z,3.10
2023-05-06T21:47:20.848Z,2.10
2023-05-06T21:49:47.867Z,2.50
2023-05-06T21:52:14.956Z,2.50
2023-05-06T21:54:41.852Z,2.60
2023-05-06T21:57:08.733Z,2.40
2023-05-06T21:59:40.885Z,2.20
2023-05-06T22:02:12.854Z,2.70
2023-05-06T22:04:40.022Z,2.00
2023-05-06T22:07:06.775Z,1.90
2023-05-06T22:09:34.085Z,2.20
2023-05-06T22:12:06.143Z,2.40
2023-05-06T22:14:40.554Z,2.20
2023-05-06T22:17:09.988Z,2.30
2023-05-06T22:19:37.912Z,2.20
2023-05-06T22:22:05.199Z,2.50
2023-05-06T22:24:32.217Z,2.40
2023-05-06T22:26:59.084Z,2.30
2023-05-06T22:29:25.925Z,2.30
2023-05-06T22:31:52.968Z,2.30
2023-05-06T22:34:19.806Z,1.90
2023-05-06T22:36:46.552Z,2.10
2023-05-06T22:39:13.537Z,2.00
2023-05-06T22:41:40.455Z,2.10
2023-05-06T22:44:07.211Z,2.20
2023-05-06T22:46:34.404Z,3.10
2023-05-06T22:49:01.361Z,2.40
2023-05-06T22:51:28.625Z,1.70
2023-05-06T22:54:00.531Z,2.40
2023-05-06T22:56:27.268Z,2.00
2023-05-06T22:58:54.073Z,1.90
2023-05-06T23:01:21.129Z,2.00
2023-05-06T23:03:48.098Z,2.10
2023-05-06T23:06:14.948Z,2.00
2023-05-06T23:08:41.793Z,2.50
2023-05-06T23:11:08.732Z,1.90
2023-05-06T23:13:35.930Z,1.90
2023-05-06T23:16:03.332Z,2.00
2023-05-06T23:18:30.305Z,2.10
2023-05-06T23:20:57.048Z,1.90
2023-05-06T23:23:24.580Z,1.90
2023-05-06T23:25:52.811Z,1.90
2023-05-06T23:28:20.455Z,1.90
2023-05-06T23:30:47.356Z,2.10
2023-05-06T23:33:14.306Z,2.10
2023-05-06T23:35:41.217Z,1.80
2023-05-06T23:38:08.123Z,2.10
2023-05-06T23:40:34.862Z,2.10
2023-05-06T23:43:01.708Z,2.10
2023-05-06T23:45:28.684Z,2.30
2023-05-06T23:47:56.578Z,2.30
2023-05-06T23:50:23.488Z,2.70
2023-05-06T23:52:50.330Z,2.10
2023-05-06T23:55:17.869Z,2.20
2023-05-06T23:57:44.830Z,2.20
